createdAt,value
2019-05-25T09:49:46.681Z,55.30
2019-05-25T09:52:16.365Z,51.70
2019-05-25T09:54:48.710Z,49.50
2019-05-25T09:57:19.759Z,49.50
2019-05-25T09:59:49.582Z,49.70
2019-05-25T10:02:19.240Z,55.90
2019-05-25T10:04:50.597Z,55.80
2019-05-25T10:07:20.958Z,55.20
2019-05-25T10:09:49.582Z,55.70
2019-05-25T10:12:18.066Z,55.00
2019-05-25T10:14:46.573Z,54.70
2019-05-25T10:17:15.160Z,55.10
2019-05-25T10:19:43.810Z,54.70
2019-05-25T10:22:12.364Z,57.20
2019-05-25T10:24:40.855Z,57.60
2019-05-25T10:27:09.313Z,52.00
2019-05-25T10:29:57.153Z,54.50
2019-05-25T10:32:25.617Z,52.60
2019-05-25T10:34:57.124Z,53.50
2019-05-25T10:37:24.756Z,52.50
2019-05-25T10:39:53.182Z,50.40
2019-05-25T10:42:21.615Z,52.30
2019-05-25T10:44:50.063Z,54.00
2019-05-25T10:47:18.498Z,53.90
2019-05-25T10:49:47.401Z,53.60
2019-05-25T10:52:16.969Z,53.80
2019-05-25T10:54:46.668Z,52.50
2019-05-25T10:57:15.498Z,51.60
2019-05-25T10:59:52.356Z,49.20
2019-05-25T11:02:14.073Z,49.00
2019-05-25T11:04:42.574Z,48.00
2019-05-25T11:07:11.081Z,45.40
2019-05-25T11:09:41.758Z,46.10
2019-05-25T11:12:10.342Z,45.90
2019-05-25T11:14:38.841Z,47.00
2019-05-25T11:17:07.287Z,48.50
2019-05-25T11:19:35.966Z,46.70
2019-05-25T11:22:04.586Z,44.70
2019-05-25T11:24:33.289Z,47.40
2019-05-25T11:27:01.828Z,49.90
2019-05-25T11:29:30.539Z,53.80
2019-05-25T11:32:03.759Z,56.90
2019-05-25T11:34:29.306Z,59.40
2019-05-25T11:36:57.762Z,60.90
2019-05-25T11:39:26.923Z,63.70
2019-05-25T11:41:55.429Z,64.90
2019-05-25T11:44:23.983Z,61.70
2019-05-25T11:46:52.536Z,56.60
2019-05-25T11:49:22.723Z,52.00
2019-05-25T11:51:51.256Z,48.10
2019-05-25T11:54:19.962Z,47.50
2019-05-25T11:56:48.450Z,50.40
2019-05-25T11:59:17.106Z,49.80
2019-05-25T12:01:45.701Z,52.50
2019-05-25T12:04:14.236Z,54.50
2019-05-25T12:06:42.663Z,56.10
2019-05-25T12:09:11.129Z,54.70
2019-05-25T12:11:39.523Z,51.30
2019-05-25T12:14:08.039Z,49.70
2019-05-25T12:16:36.497Z,47.70
2019-05-25T12:19:05.102Z,46.40
2019-05-25T12:21:33.643Z,49.40
2019-05-25T12:24:02.065Z,53.00
2019-05-25T12:26:30.650Z,55.60
2019-05-25T12:29:01.688Z,56.60
2019-05-25T12:31:30.255Z,59.20
2019-05-25T12:33:58.763Z,63.50
2019-05-25T12:36:27.352Z,63.30
2019-05-25T12:38:55.839Z,66.30
2019-05-25T12:41:24.764Z,64.20
2019-05-25T12:43:53.413Z,58.30
2019-05-25T12:46:22.092Z,55.30
2019-05-25T12:48:51.291Z,51.10
2019-05-25T12:51:19.975Z,46.30
2019-05-25T12:53:48.418Z,45.90
2019-05-25T12:56:17.002Z,45.40
2019-05-25T12:58:45.494Z,48.90
2019-05-25T13:01:13.922Z,48.90
2019-05-25T13:03:42.334Z,49.40
2019-05-25T13:06:10.818Z,46.00
2019-05-25T13:08:39.252Z,45.60
2019-05-25T13:11:09.663Z,44.70
2019-05-25T13:13:37.989Z,43.90
2019-05-25T13:16:06.458Z,43.10
2019-05-25T13:18:34.969Z,39.40
2019-05-25T13:21:03.642Z,42.60
2019-05-25T13:23:32.237Z,45.60
2019-05-25T13:26:00.691Z,45.70
2019-05-25T13:28:29.200Z,45.80
2019-05-25T13:31:10.887Z,47.00
2019-05-25T13:33:27.839Z,44.80
2019-05-25T13:35:56.294Z,44.80
2019-05-25T13:38:24.804Z,45.00
2019-05-25T13:40:53.246Z,46.40
2019-05-25T13:43:21.747Z,49.00
2019-05-25T13:45:50.284Z,49.10
2019-05-25T13:48:18.860Z,48.20
2019-05-25T13:50:47.537Z,48.00
2019-05-25T13:53:16.146Z,46.80
2019-05-25T13:55:44.654Z,45.20
2019-05-25T13:58:13.253Z,44.70
2019-05-25T14:00:41.986Z,43.30
2019-05-25T14:03:10.422Z,43.30
2019-05-25T14:05:38.952Z,45.40
2019-05-25T14:08:07.575Z,47.20
2019-05-25T14:10:36.237Z,49.40
2019-05-25T14:13:04.722Z,50.40
2019-05-25T14:15:33.474Z,51.30
2019-05-25T14:18:02.022Z,52.00
2019-05-25T14:20:30.459Z,50.50
2019-05-25T14:22:58.912Z,51.50
2019-05-25T14:25:27.440Z,49.90
2019-05-25T14:27:55.911Z,48.90
2019-05-25T14:30:24.517Z,46.20
2019-05-25T14:32:52.980Z,45.60
2019-05-25T14:35:21.631Z,47.30
2019-05-25T14:37:50.149Z,46.00
2019-05-25T14:40:18.774Z,43.10
2019-05-25T14:42:47.305Z,42.50
2019-05-25T14:45:16.353Z,43.90
2019-05-25T14:47:45.771Z,44.90
2019-05-25T14:50:15.512Z,48.10
2019-05-25T14:52:44.324Z,50.90
2019-05-25T14:55:13.085Z,52.90
2019-05-25T14:57:41.500Z,54.50
2019-05-25T15:00:12.933Z,53.70
2019-05-25T15:02:41.508Z,55.10
2019-05-25T15:05:10.763Z,54.50
2019-05-25T15:07:39.366Z,55.50
2019-05-25T15:10:08.545Z,54.50
2019-05-25T15:12:36.991Z,54.10
2019-05-25T15:15:07.547Z,57.70
2019-05-25T15:17:37.592Z,58.40
2019-05-25T15:20:09.558Z,57.30
2019-05-25T15:22:38.057Z,57.40
2019-05-25T15:25:08.147Z,56.80
2019-05-25T15:27:36.655Z,56.70
2019-05-25T15:30:09.141Z,56.60
2019-05-25T15:32:37.706Z,58.30
2019-05-25T15:35:06.616Z,57.00
2019-05-25T15:37:35.292Z,57.60
2019-05-25T15:40:05.439Z,59.30
2019-05-25T15:42:33.863Z,57.80
2019-05-25T15:45:02.339Z,56.80
2019-05-25T15:47:30.865Z,58.40
2019-05-25T15:49:59.387Z,57.50
2019-05-25T15:52:27.818Z,58.80
2019-05-25T15:54:56.520Z,58.40
2019-05-25T15:57:25.075Z,60.00
2019-05-25T15:59:53.508Z,61.80
2019-05-25T16:02:35.693Z,63.70
2019-05-25T16:04:52.164Z,63.70
2019-05-25T16:07:20.822Z,62.40
2019-05-25T16:09:49.405Z,60.80
2019-05-25T16:12:17.831Z,61.20
2019-05-25T16:14:46.314Z,62.00
2019-05-25T16:17:14.799Z,64.00
2019-05-25T16:19:43.253Z,65.30
2019-05-25T16:22:11.781Z,65.80
2019-05-25T16:24:40.309Z,64.50
2019-05-25T16:27:08.905Z,62.00
2019-05-25T16:29:37.462Z,63.80
2019-05-25T16:32:11.548Z,63.10
2019-05-25T16:34:40.024Z,64.30
2019-05-25T16:37:11.074Z,65.70
2019-05-25T16:39:39.818Z,67.10
2019-05-25T16:42:08.379Z,67.70
2019-05-25T16:44:36.847Z,66.80
2019-05-25T16:47:05.290Z,68.10
2019-05-25T16:49:33.757Z,68.00
2019-05-25T16:52:02.167Z,67.20
2019-05-25T16:54:30.620Z,66.70
2019-05-25T16:56:59.113Z,66.00
2019-05-25T16:59:27.668Z,67.80
2019-05-25T17:01:56.112Z,67.50
2019-05-25T17:04:24.587Z,67.40
2019-05-25T17:06:53.054Z,68.30
2019-05-25T17:09:21.567Z,67.30
2019-05-25T17:11:50.091Z,67.00
2019-05-25T17:14:18.552Z,66.80
2019-05-25T17:16:47.027Z,66.80
2019-05-25T17:19:15.461Z,67.20
2019-05-25T17:21:43.893Z,68.20
2019-05-25T17:24:12.373Z,68.60
2019-05-25T17:26:40.816Z,69.10
2019-05-25T17:29:09.330Z,68.80
2019-05-25T17:31:37.865Z,66.70
2019-05-25T17:34:06.443Z,66.00
2019-05-25T17:36:34.906Z,66.80
2019-05-25T17:39:05.171Z,67.20
2019-05-25T17:41:33.650Z,67.40
2019-05-25T17:44:02.151Z,68.50
2019-05-25T17:46:30.681Z,69.60
2019-05-25T17:48:59.294Z,69.30
2019-05-25T17:51:27.860Z,69.50
2019-05-25T17:53:56.414Z,70.10
2019-05-25T17:56:24.928Z,70.00
2019-05-25T17:58:53.363Z,70.40
2019-05-25T18:01:21.907Z,70.80
2019-05-25T18:04:05.725Z,71.70
2019-05-25T18:06:20.567Z,72.00
2019-05-25T18:08:49.028Z,72.30
2019-05-25T18:11:17.577Z,72.80
2019-05-25T18:13:46.091Z,73.60
2019-05-25T18:16:14.643Z,74.50
2019-05-25T18:18:43.215Z,74.70
2019-05-25T18:21:11.767Z,74.00
2019-05-25T18:23:40.352Z,74.50
2019-05-25T18:26:09.127Z,74.60
2019-05-25T18:28:37.607Z,75.20
2019-05-25T18:31:06.221Z,75.80
2019-05-25T18:33:34.817Z,75.70
2019-05-25T18:36:03.344Z,77.20
2019-05-25T18:38:31.912Z,76.00
2019-05-25T18:41:00.425Z,76.40
2019-05-25T18:43:29.019Z,77.70
2019-05-25T18:45:57.547Z,77.20
2019-05-25T18:48:26.037Z,78.50
2019-05-25T18:50:54.586Z,78.80
2019-05-25T18:53:23.171Z,78.90
2019-05-25T18:55:53.209Z,78.50
2019-05-25T18:58:21.735Z,78.60
2019-05-25T19:00:50.201Z,78.50
2019-05-25T19:03:18.705Z,77.90
2019-05-25T19:05:47.265Z,78.30
2019-05-25T19:08:15.830Z,78.40
2019-05-25T19:10:44.345Z,78.70
2019-05-25T19:13:12.979Z,77.50
2019-05-25T19:15:41.495Z,77.40
2019-05-25T19:18:09.950Z,78.10
2019-05-25T19:20:38.393Z,77.00
2019-05-25T19:23:06.947Z,78.00
2019-05-25T19:25:35.408Z,77.70
2019-05-25T19:28:04.459Z,79.10
2019-05-25T19:30:33.139Z,78.70
2019-05-25T19:33:01.635Z,78.90
2019-05-25T19:35:30.136Z,79.20
2019-05-25T19:37:58.575Z,80.00
2019-05-25T19:40:27.171Z,80.10
2019-05-25T19:42:55.596Z,80.70
2019-05-25T19:45:24.179Z,80.60
2019-05-25T19:47:52.738Z,82.00
2019-05-25T19:50:21.795Z,81.60
2019-05-25T19:52:50.310Z,82.80
2019-05-25T19:55:18.982Z,83.50
2019-05-25T19:57:47.467Z,84.50
2019-05-25T20:00:16.631Z,86.00
2019-05-25T20:02:45.099Z,86.20
2019-05-25T20:05:16.728Z,86.70
2019-05-25T20:07:44.283Z,86.40
2019-05-25T20:10:13.091Z,86.70
2019-05-25T20:12:41.558Z,87.10
2019-05-25T20:15:10.565Z,88.00
2019-05-25T20:17:39.007Z,89.30
2019-05-25T20:20:09.142Z,89.50
2019-05-25T20:22:37.638Z,89.30
2019-05-25T20:25:07.208Z,89.70
2019-05-25T20:27:35.739Z,90.30
2019-05-25T20:30:07.394Z,90.60
2019-05-25T20:32:35.967Z,90.70
2019-05-25T20:35:06.786Z,90.70
2019-05-25T20:37:35.289Z,90.50
2019-05-25T20:40:05.870Z,90.90
2019-05-25T20:42:34.435Z,91.00
2019-05-25T20:45:03.128Z,90.60
2019-05-25T20:47:31.643Z,90.70
2019-05-25T20:50:00.124Z,90.90
2019-05-25T20:52:28.721Z,91.00
2019-05-25T20:54:57.138Z,91.20
2019-05-25T20:57:25.640Z,91.30
2019-05-25T20:59:54.071Z,91.60
2019-05-25T21:02:22.633Z,91.90
2019-05-25T21:04:51.171Z,92.40
2019-05-25T21:07:19.722Z,92.20
2019-05-25T21:09:48.232Z,92.50
2019-05-25T21:12:17.888Z,92.80
2019-05-25T21:14:47.966Z,93.00
2019-05-25T21:17:16.486Z,93.40
2019-05-25T21:19:45.045Z,93.80
2019-05-25T21:22:13.677Z,94.10
2019-05-25T21:24:42.193Z,94.50
2019-05-25T21:27:10.777Z,94.60
2019-05-25T21:29:40.766Z,94.50
2019-05-25T21:32:09.219Z,94.80
2019-05-25T21:34:37.754Z,95.10
2019-05-25T21:37:06.335Z,95.30
2019-05-25T21:39:34.759Z,95.60
2019-05-25T21:42:03.275Z,95.80
2019-05-25T21:44:31.853Z,95.80
2019-05-25T21:47:00.308Z,95.90
2019-05-25T21:49:28.921Z,96.10
2019-05-25T21:51:57.376Z,96.50
2019-05-25T21:54:25.933Z,96.90
2019-05-25T21:56:54.594Z,97.10
2019-05-25T21:59:23.523Z,97.20
2019-05-25T22:01:52.028Z,97.20
2019-05-25T22:04:20.540Z,97.50
2019-05-25T22:06:49.000Z,97.70
2019-05-25T22:09:17.492Z,97.80
2019-05-25T22:11:47.558Z,97.80
2019-05-25T22:14:16.032Z,98.10
2019-05-25T22:16:44.614Z,98.30
2019-05-25T22:19:13.094Z,98.40
2019-05-25T22:21:41.581Z,98.80
2019-05-25T22:24:10.102Z,98.80
2019-05-25T22:26:38.630Z,99.20
2019-05-25T22:29:07.174Z,99.10
2019-05-25T22:31:35.740Z,99.30
2019-05-25T22:34:04.243Z,99.40
2019-05-25T22:36:40.166Z,99.60
2019-05-25T22:39:02.958Z,99.60
2019-05-25T22:41:31.397Z,99.60
2019-05-25T22:43:59.902Z,99.90
2019-05-25T22:46:28.412Z,99.80
2019-05-25T22:48:58.451Z,99.90
2019-05-25T22:51:26.981Z,99.90
2019-05-25T22:53:55.464Z,99.90
2019-05-25T22:56:23.978Z,99.90
2019-05-25T22:58:52.411Z,99.90
2019-05-25T23:01:20.984Z,99.90
2019-05-25T23:03:49.571Z,99.90
2019-05-25T23:06:18.151Z,99.90
2019-05-25T23:08:46.723Z,99.90
2019-05-25T23:11:15.233Z,99.90
2019-05-25T23:13:43.759Z,99.90
2019-05-25T23:16:15.114Z,99.90
2019-05-25T23:18:43.625Z,99.90
2019-05-25T23:21:12.139Z,99.90
2019-05-25T23:23:40.558Z,99.90
2019-05-25T23:26:09.173Z,99.90
2019-05-25T23:28:37.828Z,99.90
2019-05-25T23:31:06.318Z,99.90
2019-05-25T23:33:34.774Z,99.90
2019-05-25T23:36:03.201Z,99.90
2019-05-25T23:38:31.676Z,99.90
2019-05-25T23:41:00.312Z,99.90
2019-05-25T23:43:28.883Z,99.90
2019-05-25T23:45:57.430Z,99.90
2019-05-25T23:48:26.142Z,99.90
2019-05-25T23:50:54.654Z,99.90
2019-05-25T23:53:23.290Z,99.90
2019-05-25T23:55:51.977Z,99.90
2019-05-25T23:58:20.564Z,99.90
